createdAt,value
2023-07-20T00:02:14.510Z,14.5
2023-07-20T00:07:14.444Z,14.4
2023-07-20T00:12:14.354Z,14.4
2023-07-20T00:17:14.326Z,14.4
2023-07-20T00:22:14.242Z,14.2
2023-07-20T00:27:14.367Z,14.1
2023-07-20T00:37:14.038Z,13.9
2023-07-20T00:42:13.934Z,13.8
2023-07-20T00:47:13.871Z,13.7
2023-07-20T00:57:15.889Z,13.5
2023-07-20T01:02:13.486Z,13.4
2023-07-20T01:07:13.386Z,13.3
2023-07-20T01:12:13.217Z,13.4
2023-07-20T01:17:13.160Z,13.3
2023-07-20T01:22:12.969Z,13.1
2023-07-20T01:27:12.897Z,13.2
2023-07-20T01:32:12.712Z,13.0
2023-07-20T01:37:12.633Z,13.0
2023-07-20T01:42:12.447Z,12.9
2023-07-20T01:47:12.421Z,12.8
2023-07-20T01:52:12.176Z,12.6
2023-07-20T01:57:12.058Z,12.5
2023-07-20T02:02:11.872Z,12.4
2023-07-20T02:12:13.952Z,12.2
2023-07-20T02:17:11.359Z,12.2
2023-07-20T02:22:11.220Z,12.2
2023-07-20T02:27:11.021Z,12.1
2023-07-20T02:32:12.791Z,11.9
2023-07-20T02:37:12.304Z,11.8
2023-07-20T02:42:12.407Z,11.7
2023-07-20T02:47:10.227Z,11.6
2023-07-20T02:52:09.957Z,11.6
2023-07-20T02:57:09.746Z,11.6
2023-07-20T03:07:09.240Z,11.6
2023-07-20T03:17:08.800Z,11.6
2023-07-20T03:22:08.528Z,11.4
2023-07-20T03:27:08.343Z,11.5
2023-07-20T03:32:08.154Z,11.3
2023-07-20T03:37:07.874Z,11.2
2023-07-20T03:42:07.618Z,11.2
2023-07-20T03:52:07.103Z,11.1
2023-07-20T03:57:06.862Z,11.1
2023-07-20T04:02:06.659Z,10.9
2023-07-20T04:07:06.409Z,10.9
2023-07-20T04:12:06.056Z,10.9
2023-07-20T04:22:05.520Z,10.8
2023-07-20T04:27:05.291Z,10.6
2023-07-20T04:32:05.137Z,10.6
2023-07-20T04:37:04.751Z,10.5
2023-07-20T04:42:04.413Z,10.6
2023-07-20T04:52:03.822Z,10.7
2023-07-20T04:57:03.546Z,10.7
2023-07-20T05:02:03.307Z,10.7
2023-07-20T05:07:02.993Z,10.7
2023-07-20T05:12:04.799Z,10.7
2023-07-20T05:17:02.412Z,10.8
2023-07-20T05:22:02.037Z,10.9
2023-07-20T05:27:01.773Z,11.1
2023-07-20T05:32:01.535Z,11.3
2023-07-20T05:37:01.246Z,11.4
2023-07-20T05:42:00.919Z,11.5
2023-07-20T05:47:00.818Z,11.6
2023-07-20T05:57:00.177Z,11.9
2023-07-20T06:01:59.963Z,12.1
2023-07-20T06:06:59.584Z,12.1
2023-07-20T06:11:59.251Z,12.4
2023-07-20T06:16:59.004Z,12.6
2023-07-20T06:21:58.788Z,12.6
2023-07-20T06:26:58.568Z,12.9
2023-07-20T06:31:58.239Z,13.1
2023-07-20T06:36:57.975Z,13.2
2023-07-20T06:41:57.696Z,13.2
2023-07-20T06:46:57.616Z,13.4
2023-07-20T06:51:57.323Z,13.6
2023-07-20T07:01:59.372Z,14.1
2023-07-20T07:06:56.832Z,14.2
2023-07-20T07:11:56.661Z,14.6
2023-07-20T07:16:58.398Z,14.6
2023-07-20T07:22:00.476Z,14.6
2023-07-20T07:26:56.241Z,14.6
2023-07-20T07:36:56.065Z,14.8
2023-07-20T07:41:55.921Z,14.9
2023-07-20T07:46:55.886Z,15.2
2023-07-20T07:51:55.680Z,15.2
2023-07-20T07:56:56.648Z,15.6
2023-07-20T08:01:55.616Z,15.6
2023-07-20T08:11:57.801Z,16.1
2023-07-20T08:16:55.530Z,16.1
2023-07-20T08:26:55.393Z,16.8
2023-07-20T08:41:55.391Z,17.1
2023-07-20T08:56:55.394Z,17.1
2023-07-20T09:06:55.439Z,18.4
2023-07-20T09:16:55.625Z,18.2
2023-07-20T09:21:55.562Z,18.4
2023-07-20T09:26:55.931Z,18.5
2023-07-20T09:32:01.088Z,18.6
2023-07-20T09:36:59.440Z,18.6
2023-07-20T09:42:34.709Z,19.1
2023-07-20T10:06:56.241Z,20.0
2023-07-20T10:12:15.188Z,19.9
2023-07-20T10:16:56.665Z,20.1
2023-07-20T10:21:59.480Z,20.5
2023-07-20T10:31:57.157Z,19.9
2023-07-20T10:36:57.275Z,21.2
2023-07-20T10:41:58.456Z,21.4
2023-07-20T10:51:57.727Z,19.9
2023-07-20T10:56:57.927Z,19.7
2023-07-20T11:06:58.550Z,19.4
2023-07-20T11:11:58.527Z,20.0
2023-07-20T11:16:58.756Z,20.4
2023-07-20T11:22:03.660Z,20.5
2023-07-20T11:26:59.325Z,20.6
2023-07-20T11:31:59.276Z,20.5
2023-07-20T11:42:01.804Z,21.0
2023-07-20T11:46:59.863Z,21.6
2023-07-20T11:52:00.241Z,23.0
2023-07-20T11:57:00.375Z,23.4
2023-07-20T12:02:00.733Z,23.6
2023-07-20T12:07:00.986Z,23.2
2023-07-20T12:12:01.208Z,24.0
2023-07-20T12:22:02.124Z,24.9
2023-07-20T12:27:02.185Z,25.3
2023-07-20T12:32:02.648Z,25.6
2023-07-20T12:37:02.985Z,26.4
2023-07-20T12:42:03.332Z,26.2
2023-07-20T12:47:03.741Z,26.6
2023-07-20T12:52:04.211Z,25.1
2023-07-20T13:02:05.079Z,22.9
2023-07-20T13:08:19.760Z,22.1
2023-07-20T13:12:06.144Z,21.5
2023-07-20T13:22:06.605Z,21.1
2023-07-20T13:27:06.907Z,21.1
2023-07-20T13:32:07.216Z,20.8
2023-07-20T13:37:07.485Z,20.8
2023-07-20T13:42:07.762Z,20.2
2023-07-20T13:57:09.803Z,19.9
2023-07-20T14:07:09.491Z,19.8
2023-07-20T14:17:09.316Z,19.8
2023-07-20T14:22:09.590Z,19.8
2023-07-20T14:32:09.922Z,20.0
2023-07-20T14:37:10.002Z,20.2
2023-07-20T14:42:10.161Z,20.6
2023-07-20T14:47:15.004Z,20.5
2023-07-20T15:02:11.053Z,21.7
2023-07-20T15:07:13.495Z,22.9
2023-07-20T15:12:11.594Z,22.6
2023-07-20T15:22:14.571Z,21.6
2023-07-20T15:27:12.552Z,21.2
2023-07-20T15:32:12.931Z,20.9
2023-07-20T15:37:13.204Z,20.6
2023-07-20T15:47:13.797Z,20.1
2023-07-20T15:52:14.002Z,19.9
2023-07-20T15:57:14.288Z,19.9
2023-07-20T16:07:14.760Z,19.4
2023-07-20T16:17:15.195Z,18.6
2023-07-20T16:22:15.325Z,18.6
2023-07-20T16:32:15.614Z,18.7
2023-07-20T16:42:15.926Z,18.4
2023-07-20T16:52:16.144Z,18.2
2023-07-20T16:57:16.283Z,18.2
2023-07-20T17:02:16.617Z,18.3
2023-07-20T17:07:17.032Z,18.2
2023-07-20T17:17:16.811Z,18.1
2023-07-20T17:22:16.878Z,18.3
2023-07-20T17:27:18.755Z,18.3
2023-07-20T17:32:17.076Z,18.4
2023-07-20T17:52:17.463Z,17.9
2023-07-20T17:57:17.585Z,18.0
2023-07-20T18:02:17.707Z,18.1
2023-07-20T18:07:17.815Z,18.1
2023-07-20T18:17:18.049Z,18.2
2023-07-20T18:37:18.438Z,18.0
2023-07-20T18:42:18.586Z,18.0
2023-07-20T18:47:18.707Z,17.9
2023-07-20T18:52:18.738Z,17.9
2023-07-20T18:57:18.889Z,17.9
2023-07-20T19:02:21.400Z,17.8
2023-07-20T19:07:18.987Z,17.7
2023-07-20T19:12:19.105Z,17.7
2023-07-20T19:17:19.192Z,17.6
2023-07-20T19:22:19.210Z,17.4
2023-07-20T19:27:19.294Z,17.3
2023-07-20T19:32:19.371Z,17.2
2023-07-20T19:37:19.414Z,17.1
2023-07-20T19:42:19.442Z,16.8
2023-07-20T19:47:19.628Z,16.6
2023-07-20T19:52:19.513Z,16.4
2023-07-20T20:02:19.635Z,16.1
2023-07-20T20:12:19.738Z,15.9
2023-07-20T20:17:22.077Z,16.0
2023-07-20T20:22:19.758Z,15.8
2023-07-20T20:27:19.822Z,15.8
2023-07-20T20:32:19.868Z,15.8
2023-07-20T20:37:19.881Z,15.6
2023-07-20T20:42:19.825Z,15.5
2023-07-20T20:47:19.871Z,15.4
2023-07-20T20:52:19.734Z,15.4
2023-07-20T20:57:21.766Z,15.3
2023-07-20T21:02:19.777Z,15.1
2023-07-20T21:07:19.721Z,15.0
2023-07-20T21:12:19.677Z,14.9
2023-07-20T21:17:19.779Z,14.9
2023-07-20T21:22:19.685Z,14.7
2023-07-20T21:27:19.670Z,14.6
2023-07-20T21:32:19.659Z,14.5
2023-07-20T21:37:19.563Z,14.3
2023-07-20T21:42:19.509Z,14.4
2023-07-20T21:47:19.498Z,14.3
2023-07-20T21:52:19.431Z,14.2
2023-07-20T21:57:19.425Z,14.1
2023-07-20T22:02:19.370Z,14.1
2023-07-20T22:07:19.314Z,13.9
2023-07-20T22:12:19.233Z,13.9
2023-07-20T22:17:19.205Z,13.8
2023-07-20T22:22:19.182Z,13.8
2023-07-20T22:27:19.072Z,13.8
2023-07-20T22:32:18.987Z,13.7
2023-07-20T22:37:18.908Z,13.6
2023-07-20T22:42:18.836Z,13.5
2023-07-20T22:47:18.770Z,13.3
2023-07-20T22:52:18.629Z,13.4
2023-07-20T22:57:18.612Z,13.2
2023-07-20T23:02:20.800Z,13.1
2023-07-20T23:07:18.321Z,13.1
2023-07-20T23:12:18.232Z,13.1
2023-07-20T23:17:18.097Z,12.9
2023-07-20T23:22:18.021Z,12.8
2023-07-20T23:27:17.830Z,12.9
2023-07-20T23:32:17.733Z,12.8
2023-07-20T23:47:17.398Z,12.6
2023-07-20T23:57:17.025Z,12.5
